Messwerte East Jakarta

Temperatur

Temperatur
°C
1571785200 6.00 6.00 26
1571788800 7.00 7.00 28
1571792400 8.00 8.00 30
1571796000 9.00 9.00 32
1571799600 10.00 10.00 33
1571803200 11.00 11.00 36
1571806800 12.00 12.00 37
1571810400 13.00 13.00 36
1571814000 14.00 14.00 37
1571817600 15.00 15.00
1571821200 16.00 16.00 35
1571824800 17.00 17.00 33
1571828400 18.00 18.00 32
1571832000 19.00 19.00 31
1571835600 20.00 20.00
1571839200 21.00 21.00
1571842800 22.00 22.00
1571846400 23.00 23.00
1571850000 0.00 0.00
1571853600 1.00 1.00
1571857200 2.00 2.00
1571860800 3.00 3.00
1571864400 4.00 4.00 26
1571868000 5.00 5.00 26

Aktuellste Messwerte

Wettercharakter
Wetter: meist klar
Temperatur
26 °C
Feuchtigkeit
75 %
Wind
0 km/h, -
Luftdruck
1009 hPa
Messzeit: 24. Oktober 2019, 5.00Datenquelle: METAR

Weitere Messstationen in der Nähe

Messstation Temperatur Entfernung
Jakarta 25 °C 31 km
Palembang 24 °C 446 km
Christmas Island 24 °C 483 km

Wind

Windrichtung Böen Mittelwind
° km/h km/h
1571785200 6.00 5.00 - 6.00 0
1571788800 7.00 6.00 - 7.00 230° 5
1571792400 8.00 7.00 - 8.00 200° 10
1571796000 9.00 8.00 - 9.00 180° 5
1571799600 10.00 9.00 - 10.00 200° 15
1571803200 11.00 10.00 - 11.00 120° 15
1571806800 12.00 11.00 - 12.00 50° 25
1571810400 13.00 12.00 - 13.00 80° 25
1571814000 14.00 13.00 - 14.00 50° 30
1571817600 15.00 14.00 - 15.00
1571821200 16.00 15.00 - 16.00 30° 25
1571824800 17.00 16.00 - 17.00 40° 25
1571828400 18.00 17.00 - 18.00 50° 15
1571832000 19.00 18.00 - 19.00 10° 5
1571835600 20.00 19.00 - 20.00
1571839200 21.00 20.00 - 21.00
1571842800 22.00 21.00 - 22.00
1571846400 23.00 22.00 - 23.00
1571850000 0.00 23.00 - 0.00
1571853600 1.00 0.00 - 1.00
1571857200 2.00 1.00 - 2.00
1571860800 3.00 2.00 - 3.00
1571864400 4.00 3.00 - 4.00 0
1571868000 5.00 4.00 - 5.00 0

Ihre Wetterstation

Fehlt Ihre Wetterstation auf unserem Portal?

Schreiben Sie an network@meteonews.ch

Klima

Wann ist es am wärmsten? Wann regnet es am wenigsten? Unsere Klimadaten geben Auskunft.